createdAt,value
2023-04-27T00:00:38.123Z,3.90
2023-04-27T00:01:37.274Z,3.89
2023-04-27T00:02:38.228Z,3.86
2023-04-27T00:03:38.170Z,3.89
2023-04-27T00:04:36.799Z,3.89
2023-04-27T00:05:37.357Z,3.89
2023-04-27T00:06:38.051Z,3.88
2023-04-27T00:07:38.017Z,3.83
2023-04-27T00:08:38.023Z,3.82
2023-04-27T00:09:38.016Z,3.80
2023-04-27T00:10:37.988Z,3.80
2023-04-27T00:11:37.251Z,3.82
2023-04-27T00:12:37.281Z,3.85
2023-04-27T00:13:37.975Z,3.88
2023-04-27T00:14:37.928Z,3.90
2023-04-27T00:15:37.929Z,3.90
2023-04-27T00:16:37.954Z,3.94
2023-04-27T00:17:37.947Z,3.96
2023-04-27T00:18:37.874Z,3.98
2023-04-27T00:19:37.861Z,3.97
2023-04-27T00:20:36.399Z,3.98
2023-04-27T00:21:36.887Z,4.01
2023-04-27T00:22:37.834Z,4.01
2023-04-27T00:23:37.801Z,4.01
2023-04-27T00:24:37.800Z,4.04
2023-04-27T00:25:37.785Z,4.04
2023-04-27T00:26:37.761Z,4.07
2023-04-27T00:27:37.772Z,4.10
2023-04-27T00:28:36.286Z,4.14
2023-04-27T00:29:37.718Z,4.15
2023-04-27T00:30:37.724Z,4.19
2023-04-27T00:31:37.786Z,4.19
2023-04-27T00:32:37.732Z,4.22
2023-04-27T00:33:37.680Z,4.25
2023-04-27T00:34:37.656Z,4.26
2023-04-27T00:35:37.651Z,4.29
2023-04-27T00:36:36.189Z,4.33
2023-04-27T00:37:37.646Z,4.34
2023-04-27T00:38:37.620Z,4.36
2023-04-27T00:39:37.597Z,4.37
2023-04-27T00:40:37.590Z,4.39
2023-04-27T00:41:37.568Z,4.44
2023-04-27T00:42:37.570Z,4.46
2023-04-27T00:43:37.533Z,4.47
2023-04-27T00:44:36.119Z,4.54
2023-04-27T00:45:37.592Z,4.58
2023-04-27T00:46:37.494Z,4.61
2023-04-27T00:47:37.552Z,4.65
2023-04-27T00:48:37.478Z,4.69
2023-04-27T00:49:37.461Z,4.70
2023-04-27T00:50:37.439Z,4.73
2023-04-27T00:51:37.420Z,4.75
2023-04-27T00:52:37.420Z,4.75
2023-04-27T00:53:37.431Z,4.77
2023-04-27T00:54:37.358Z,4.79
2023-04-27T00:55:37.378Z,4.83
2023-04-27T00:56:37.368Z,4.80
2023-04-27T00:57:37.384Z,4.83
2023-04-27T00:58:37.349Z,4.83
2023-04-27T00:59:37.324Z,4.86
2023-04-27T01:00:36.136Z,4.91
2023-04-27T01:01:37.362Z,4.89
2023-04-27T01:02:36.021Z,4.86
2023-04-27T01:03:37.377Z,4.89
2023-04-27T01:04:37.383Z,4.91
2023-04-27T01:05:37.255Z,4.91
2023-04-27T01:06:37.261Z,4.92
2023-04-27T01:07:37.233Z,4.94
2023-04-27T01:08:35.800Z,4.96
2023-04-27T01:09:36.101Z,4.95
2023-04-27T01:10:37.189Z,4.96
2023-04-27T01:11:37.176Z,4.96
2023-04-27T01:12:37.170Z,4.92
2023-04-27T01:13:37.191Z,4.91
2023-04-27T01:14:37.127Z,4.95
2023-04-27T01:15:37.122Z,4.96
2023-04-27T01:16:35.689Z,4.99
2023-04-27T01:17:37.185Z,5.02
2023-04-27T01:18:37.083Z,5.02
2023-04-27T01:19:37.072Z,5.04
2023-04-27T01:20:35.724Z,5.05
2023-04-27T01:21:37.057Z,5.05
2023-04-27T01:22:37.034Z,5.05
2023-04-27T01:23:37.004Z,5.05
2023-04-27T01:24:35.848Z,5.05
2023-04-27T01:25:36.983Z,5.05
2023-04-27T01:26:36.980Z,5.07
2023-04-27T01:27:36.975Z,5.07
2023-04-27T01:28:37.013Z,5.07
2023-04-27T01:29:35.978Z,5.09
2023-04-27T01:30:36.921Z,5.10
2023-04-27T01:31:37.042Z,5.13
2023-04-27T01:32:36.990Z,5.10
2023-04-27T01:33:36.872Z,5.13
2023-04-27T01:34:36.857Z,5.13
2023-04-27T01:35:36.850Z,5.12
2023-04-27T01:36:36.828Z,5.12
2023-04-27T01:37:36.833Z,5.10
2023-04-27T01:38:36.798Z,5.12
2023-04-27T01:39:36.786Z,5.10
2023-04-27T01:40:36.782Z,5.10
2023-04-27T01:41:36.775Z,5.10
2023-04-27T01:42:36.766Z,5.09
2023-04-27T01:43:36.778Z,5.07
2023-04-27T01:44:36.742Z,5.05
2023-04-27T01:45:36.721Z,5.05
2023-04-27T01:46:36.777Z,5.07
2023-04-27T01:47:36.736Z,5.05
2023-04-27T01:48:36.674Z,5.07
2023-04-27T01:49:36.646Z,5.07
2023-04-27T01:50:36.638Z,5.09
2023-04-27T01:51:36.634Z,5.07
2023-04-27T01:52:36.631Z,5.07
2023-04-27T01:53:36.618Z,5.12
2023-04-27T01:54:36.591Z,5.14
2023-04-27T01:55:36.566Z,5.17
2023-04-27T01:56:36.567Z,5.17
2023-04-27T01:57:36.553Z,5.14
2023-04-27T01:58:36.540Z,5.14
2023-04-27T01:59:36.552Z,5.16
2023-04-27T02:00:36.509Z,5.20
2023-04-27T02:01:36.535Z,5.22
2023-04-27T02:02:36.662Z,5.14
2023-04-27T02:03:36.600Z,5.16
2023-04-27T02:04:36.851Z,5.17
2023-04-27T02:05:36.452Z,5.20
2023-04-27T02:06:36.457Z,5.22
2023-04-27T02:07:36.512Z,5.22
2023-04-27T02:08:36.452Z,5.23
2023-04-27T02:09:36.422Z,5.23
2023-04-27T02:10:36.382Z,5.25
2023-04-27T02:11:36.371Z,5.25
2023-04-27T02:12:34.910Z,5.28
2023-04-27T02:13:36.338Z,5.30
2023-04-27T02:14:35.255Z,5.30
2023-04-27T02:15:36.313Z,5.31
2023-04-27T02:16:36.404Z,5.32
2023-04-27T02:17:35.374Z,5.31
2023-04-27T02:18:36.292Z,5.32
2023-04-27T02:19:35.545Z,5.31
2023-04-27T02:20:35.363Z,5.31
2023-04-27T02:21:36.236Z,5.31
2023-04-27T02:22:35.372Z,5.30
2023-04-27T02:23:36.205Z,5.31
2023-04-27T02:24:36.189Z,5.30
2023-04-27T02:25:36.192Z,5.28
2023-04-27T02:26:36.163Z,5.30
2023-04-27T02:27:35.372Z,5.28
2023-04-27T02:28:36.126Z,5.30
2023-04-27T02:29:36.129Z,5.32
2023-04-27T02:30:34.657Z,5.34
2023-04-27T02:31:36.160Z,5.37
2023-04-27T02:32:36.120Z,5.34
2023-04-27T02:33:36.069Z,5.35
2023-04-27T02:34:35.364Z,5.38
2023-04-27T02:35:35.354Z,5.41
2023-04-27T02:36:36.052Z,5.41
2023-04-27T02:37:36.038Z,5.45
2023-04-27T02:38:35.993Z,5.48
2023-04-27T02:39:35.996Z,5.48
2023-04-27T02:40:35.295Z,5.46
2023-04-27T02:41:35.959Z,5.46
2023-04-27T02:42:35.962Z,5.41
2023-04-27T02:43:35.229Z,5.48
2023-04-27T02:44:35.932Z,5.50
2023-04-27T02:45:35.909Z,5.55
2023-04-27T02:46:35.920Z,5.57
2023-04-27T02:47:35.919Z,5.59
2023-04-27T02:48:35.470Z,5.56
2023-04-27T02:49:37.973Z,5.56
2023-04-27T02:50:35.840Z,5.56
2023-04-27T02:51:34.400Z,5.56
2023-04-27T02:52:35.834Z,5.55
2023-04-27T02:53:35.784Z,5.53
2023-04-27T02:54:35.772Z,5.52
2023-04-27T02:55:35.772Z,5.50
2023-04-27T02:56:35.746Z,5.49
2023-04-27T02:57:35.762Z,5.49
2023-04-27T02:58:35.727Z,5.48
2023-04-27T02:59:35.697Z,5.46
2023-04-27T03:00:35.685Z,5.46
2023-04-27T03:01:35.780Z,5.45
2023-04-27T03:02:35.742Z,5.45
2023-04-27T03:03:35.756Z,5.43
2023-04-27T03:04:35.685Z,5.43
2023-04-27T03:05:35.643Z,5.43
2023-04-27T03:06:35.604Z,5.40
2023-04-27T03:07:34.153Z,5.40
2023-04-27T03:08:35.586Z,5.40
2023-04-27T03:09:35.569Z,5.38
2023-04-27T03:10:35.555Z,5.38
2023-04-27T03:11:37.359Z,5.41
2023-04-27T03:12:35.535Z,5.43
2023-04-27T03:13:35.520Z,5.40
2023-04-27T03:14:35.492Z,5.41
2023-04-27T03:15:35.473Z,5.41
2023-04-27T03:16:35.523Z,5.40
2023-04-27T03:17:35.530Z,5.41
2023-04-27T03:18:35.442Z,5.40
2023-04-27T03:19:35.420Z,5.38
2023-04-27T03:20:35.420Z,5.35
2023-04-27T03:21:35.412Z,5.35
2023-04-27T03:22:35.369Z,5.37
2023-04-27T03:23:33.928Z,5.32
2023-04-27T03:24:35.362Z,5.32
2023-04-27T03:25:35.338Z,5.32
2023-04-27T03:26:34.195Z,5.27
2023-04-27T03:27:35.338Z,5.28
2023-04-27T03:28:34.201Z,5.31
2023-04-27T03:29:35.312Z,5.34
2023-04-27T03:30:34.219Z,5.32
2023-04-27T03:31:34.245Z,5.30
2023-04-27T03:32:34.240Z,5.34
2023-04-27T03:33:35.285Z,5.34
2023-04-27T03:34:35.243Z,5.32
2023-04-27T03:35:35.216Z,5.32
2023-04-27T03:36:35.193Z,5.34
2023-04-27T03:37:35.185Z,5.34
2023-04-27T03:38:35.189Z,5.32
2023-04-27T03:39:33.708Z,5.30
2023-04-27T03:40:35.143Z,5.30
2023-04-27T03:41:35.132Z,5.28
2023-04-27T03:42:35.127Z,5.27
2023-04-27T03:43:35.108Z,5.31
2023-04-27T03:44:35.107Z,5.32
2023-04-27T03:45:35.178Z,5.32
2023-04-27T03:46:35.233Z,5.34
2023-04-27T03:47:35.099Z,5.35
2023-04-27T03:48:35.027Z,5.34
2023-04-27T03:49:35.024Z,5.30
2023-04-27T03:50:35.012Z,5.28
2023-04-27T03:51:34.985Z,5.34
2023-04-27T03:52:35.000Z,5.37
2023-04-27T03:53:34.991Z,5.32
2023-04-27T03:54:34.954Z,5.31
2023-04-27T03:55:33.499Z,5.34
2023-04-27T03:56:34.924Z,5.37
2023-04-27T03:57:34.926Z,5.38
2023-04-27T03:58:34.905Z,5.40
2023-04-27T03:59:34.878Z,5.37
2023-04-27T04:00:34.865Z,5.37
2023-04-27T04:01:34.858Z,5.37
2023-04-27T04:02:34.906Z,5.34
2023-04-27T04:03:33.535Z,5.34
2023-04-27T04:04:35.026Z,5.32
2023-04-27T04:05:34.822Z,5.34
2023-04-27T04:06:34.787Z,5.31
2023-04-27T04:07:34.773Z,5.34
2023-04-27T04:08:34.773Z,5.32
2023-04-27T04:09:34.774Z,5.31
2023-04-27T04:10:34.730Z,5.31
2023-04-27T04:11:33.266Z,5.28
2023-04-27T04:12:34.707Z,5.31
2023-04-27T04:13:34.718Z,5.30
2023-04-27T04:14:34.684Z,5.30
2023-04-27T04:15:34.682Z,5.27
2023-04-27T04:16:34.675Z,5.31
2023-04-27T04:17:34.653Z,5.31
2023-04-27T04:18:34.626Z,5.30
2023-04-27T04:19:33.462Z,5.28
2023-04-27T04:20:34.587Z,5.30
2023-04-27T04:21:34.583Z,5.31
2023-04-27T04:22:34.560Z,5.30
2023-04-27T04:23:34.558Z,5.27
2023-04-27T04:24:34.551Z,5.27
2023-04-27T04:25:34.534Z,5.23
2023-04-27T04:26:34.527Z,5.17
2023-04-27T04:27:33.049Z,5.14
2023-04-27T04:28:34.489Z,5.13
2023-04-27T04:29:34.493Z,5.12
2023-04-27T04:30:34.472Z,5.12
2023-04-27T04:31:34.482Z,5.09
2023-04-27T04:32:34.490Z,5.09
2023-04-27T04:33:34.437Z,5.07
2023-04-27T04:34:33.181Z,5.05
2023-04-27T04:35:33.220Z,5.04
2023-04-27T04:36:34.390Z,5.04
2023-04-27T04:37:34.414Z,5.02
2023-04-27T04:38:34.376Z,5.01
2023-04-27T04:39:34.352Z,4.96
2023-04-27T04:40:34.324Z,4.95
2023-04-27T04:41:33.372Z,4.92
2023-04-27T04:42:34.307Z,4.86
2023-04-27T04:43:34.326Z,4.86
2023-04-27T04:44:34.289Z,4.88
2023-04-27T04:45:34.281Z,4.84
2023-04-27T04:46:33.540Z,4.83
2023-04-27T04:47:34.367Z,4.86
2023-04-27T04:48:34.258Z,4.80
2023-04-27T04:49:34.216Z,4.80
2023-04-27T04:50:33.203Z,4.83
2023-04-27T04:51:32.733Z,4.75
2023-04-27T04:52:34.184Z,4.76
2023-04-27T04:53:34.189Z,4.80
2023-04-27T04:54:34.160Z,4.79
2023-04-27T04:55:34.140Z,4.73
2023-04-27T04:56:34.121Z,4.77
2023-04-27T04:57:34.154Z,4.86
2023-04-27T04:58:34.118Z,4.86
2023-04-27T04:59:34.128Z,4.91
2023-04-27T05:00:34.094Z,4.95
2023-04-27T05:01:34.103Z,5.01
2023-04-27T05:02:34.161Z,5.05
2023-04-27T05:03:34.249Z,5.09
2023-04-27T05:04:34.075Z,5.12
2023-04-27T05:05:34.006Z,5.16
2023-04-27T05:06:33.307Z,5.20
2023-04-27T05:07:32.526Z,5.25
2023-04-27T05:08:33.996Z,5.27
2023-04-27T05:09:33.955Z,5.32
2023-04-27T05:10:33.951Z,5.35
2023-04-27T05:11:33.936Z,5.38
2023-04-27T05:12:33.912Z,5.40
2023-04-27T05:13:33.932Z,5.35
2023-04-27T05:14:33.902Z,5.35
2023-04-27T05:15:33.875Z,5.31
2023-04-27T05:16:34.060Z,5.31
2023-04-27T05:17:33.865Z,5.37
2023-04-27T05:18:33.880Z,5.41
2023-04-27T05:19:33.826Z,5.46
2023-04-27T05:20:33.800Z,5.49
2023-04-27T05:21:33.791Z,5.52
2023-04-27T05:22:33.777Z,5.64
2023-04-27T05:23:33.769Z,5.70
2023-04-27T05:24:33.750Z,5.78
2023-04-27T05:25:33.736Z,5.81
2023-04-27T05:26:33.725Z,5.85
2023-04-27T05:27:33.713Z,5.88
2023-04-27T05:28:33.716Z,5.93
2023-04-27T05:29:33.677Z,6.00
2023-04-27T05:30:33.673Z,6.04
2023-04-27T05:31:33.735Z,6.13
2023-04-27T05:32:33.742Z,6.21
2023-04-27T05:33:33.632Z,6.25
2023-04-27T05:34:33.612Z,6.30
2023-04-27T05:35:33.595Z,6.41
2023-04-27T05:36:33.618Z,6.50
2023-04-27T05:37:33.605Z,6.59
2023-04-27T05:38:32.304Z,6.68
2023-04-27T05:39:33.551Z,6.76
2023-04-27T05:40:33.527Z,6.80
2023-04-27T05:41:33.525Z,6.86
2023-04-27T05:42:32.102Z,6.95
2023-04-27T05:43:33.497Z,6.98
2023-04-27T05:44:32.248Z,6.97
2023-04-27T05:45:33.574Z,6.94
2023-04-27T05:46:32.256Z,6.97
2023-04-27T05:47:31.993Z,6.95
2023-04-27T05:48:33.426Z,6.95
2023-04-27T05:49:33.445Z,6.90
2023-04-27T05:50:33.388Z,6.94
2023-04-27T05:51:33.381Z,7.02
2023-04-27T05:52:32.311Z,7.07
2023-04-27T05:53:32.269Z,7.16
2023-04-27T05:54:33.336Z,7.29
2023-04-27T05:55:31.881Z,7.37
2023-04-27T05:56:33.313Z,7.47
2023-04-27T05:57:33.293Z,7.50
2023-04-27T05:58:33.297Z,7.55
2023-04-27T05:59:32.804Z,7.55
2023-04-27T06:00:32.270Z,7.56
2023-04-27T06:01:33.254Z,7.56
2023-04-27T06:02:32.509Z,7.53
2023-04-27T06:03:31.870Z,7.56
2023-04-27T06:04:33.317Z,7.55
2023-04-27T06:05:33.451Z,7.56
2023-04-27T06:06:33.177Z,7.58
2023-04-27T06:07:33.160Z,7.56
2023-04-27T06:08:33.161Z,7.53
2023-04-27T06:09:33.134Z,7.56
2023-04-27T06:10:33.117Z,7.55
2023-04-27T06:11:33.098Z,7.52
2023-04-27T06:12:33.139Z,7.47
2023-04-27T06:13:33.107Z,7.49
2023-04-27T06:14:33.079Z,7.50
2023-04-27T06:15:32.105Z,7.50
2023-04-27T06:16:33.188Z,7.55
2023-04-27T06:17:33.059Z,7.56
2023-04-27T06:18:33.016Z,7.55
2023-04-27T06:19:31.562Z,7.56
2023-04-27T06:20:33.014Z,7.55
2023-04-27T06:21:32.981Z,7.53
2023-04-27T06:22:32.575Z,7.45
2023-04-27T06:23:33.001Z,7.34
2023-04-27T06:24:32.957Z,7.38
2023-04-27T06:25:32.937Z,7.40
2023-04-27T06:26:32.918Z,7.47
2023-04-27T06:27:32.929Z,7.55
2023-04-27T06:28:32.882Z,7.63
2023-04-27T06:29:32.885Z,7.74
2023-04-27T06:30:32.863Z,7.75
2023-04-27T06:31:32.907Z,7.79
2023-04-27T06:32:32.849Z,7.89
2023-04-27T06:33:32.817Z,7.96
2023-04-27T06:34:32.796Z,7.99
2023-04-27T06:35:31.332Z,8.10
2023-04-27T06:36:32.818Z,8.18
2023-04-27T06:37:32.881Z,8.22
2023-04-27T06:38:32.756Z,8.39
2023-04-27T06:39:32.745Z,8.51
2023-04-27T06:40:32.732Z,8.60
2023-04-27T06:41:32.715Z,8.88
2023-04-27T06:42:32.702Z,9.76
2023-04-27T06:43:31.575Z,11.07
2023-04-27T06:44:32.684Z,12.06
2023-04-27T06:45:32.154Z,12.66
2023-04-27T06:46:32.781Z,13.38
2023-04-27T06:47:32.629Z,14.24
2023-04-27T06:48:32.629Z,15.06
2023-04-27T06:49:32.626Z,15.26
2023-04-27T06:50:32.585Z,14.53
2023-04-27T06:51:31.113Z,13.92
2023-04-27T06:52:32.555Z,13.54
2023-04-27T06:53:32.560Z,13.79
2023-04-27T06:54:32.546Z,13.12
2023-04-27T06:55:32.513Z,12.69
2023-04-27T06:56:32.519Z,12.39
2023-04-27T06:57:32.509Z,12.33
2023-04-27T06:58:31.346Z,12.24
2023-04-27T06:59:32.460Z,12.08
2023-04-27T07:00:32.449Z,11.90
2023-04-27T07:01:32.472Z,11.67
2023-04-27T07:02:32.476Z,11.85
2023-04-27T07:03:32.534Z,12.15
2023-04-27T07:04:32.432Z,12.39
2023-04-27T07:05:32.373Z,13.37
2023-04-27T07:06:30.965Z,14.32
2023-04-27T07:07:30.987Z,15.03
2023-04-27T07:08:31.852Z,15.42
2023-04-27T07:09:32.856Z,15.57
2023-04-27T07:10:30.966Z,15.72
2023-04-27T07:11:31.792Z,15.86
2023-04-27T07:12:31.806Z,15.84
2023-04-27T07:13:30.991Z,15.68
2023-04-27T07:14:30.988Z,15.45
2023-04-27T07:15:31.771Z,15.39
2023-04-27T07:16:31.854Z,15.19
2023-04-27T07:17:31.951Z,14.90
2023-04-27T07:18:31.710Z,15.06
2023-04-27T07:19:31.692Z,15.03
2023-04-27T07:20:31.685Z,15.33
2023-04-27T07:21:30.983Z,15.82
2023-04-27T07:22:30.774Z,16.27
2023-04-27T07:23:32.132Z,16.38
2023-04-27T07:24:30.986Z,16.81
2023-04-27T07:25:32.102Z,17.15
2023-04-27T07:26:32.096Z,17.30
2023-04-27T07:27:32.079Z,17.59
2023-04-27T07:28:32.071Z,17.79
2023-04-27T07:29:32.505Z,17.47
2023-04-27T07:30:30.637Z,16.99
2023-04-27T07:31:32.060Z,16.90
2023-04-27T07:32:32.028Z,16.83
2023-04-27T07:33:31.992Z,16.42
2023-04-27T07:34:41.205Z,16.55
2023-04-27T07:35:32.974Z,16.96
2023-04-27T07:36:31.963Z,16.62
2023-04-27T07:37:31.952Z,16.48
2023-04-27T07:38:31.928Z,16.26
2023-04-27T07:39:31.934Z,16.22
2023-04-27T07:40:31.921Z,16.27
2023-04-27T07:41:31.895Z,16.38
2023-04-27T07:42:31.877Z,16.56
2023-04-27T07:43:31.856Z,16.78
2023-04-27T07:44:31.857Z,16.68
2023-04-27T07:45:31.934Z,16.37
2023-04-27T07:46:31.813Z,15.45
2023-04-27T07:47:31.807Z,15.11
2023-04-27T07:48:31.797Z,15.11
2023-04-27T07:49:31.786Z,14.94
2023-04-27T07:50:31.764Z,15.41
2023-04-27T07:51:31.765Z,15.63
2023-04-27T07:52:31.741Z,15.82
2023-04-27T07:53:31.729Z,15.79
2023-04-27T07:54:31.744Z,15.61
2023-04-27T07:55:31.705Z,15.35
2023-04-27T07:56:31.696Z,15.38
2023-04-27T07:57:31.674Z,15.51
2023-04-27T07:58:31.643Z,15.46
2023-04-27T07:59:30.354Z,15.45
2023-04-27T08:00:31.620Z,15.33
2023-04-27T08:01:31.623Z,15.38
2023-04-27T08:02:30.286Z,15.59
2023-04-27T08:03:30.551Z,15.75
2023-04-27T08:04:31.951Z,15.93
2023-04-27T08:05:32.059Z,16.00
2023-04-27T08:06:32.105Z,15.81
2023-04-27T08:07:31.933Z,15.68
2023-04-27T08:08:31.512Z,15.56
2023-04-27T08:09:31.499Z,15.67
2023-04-27T08:10:30.373Z,15.81
2023-04-27T08:11:31.461Z,15.81
2023-04-27T08:12:31.459Z,15.79
2023-04-27T08:13:30.366Z,15.72
2023-04-27T08:14:31.442Z,15.88
2023-04-27T08:15:30.380Z,15.76
2023-04-27T08:16:31.467Z,15.96
2023-04-27T08:17:31.410Z,15.94
2023-04-27T08:18:30.383Z,16.03
2023-04-27T08:19:30.386Z,15.93
2023-04-27T08:20:31.364Z,15.88
2023-04-27T08:21:30.380Z,15.97
2023-04-27T08:22:30.381Z,16.11
2023-04-27T08:23:31.337Z,15.94
2023-04-27T08:24:31.318Z,15.94
2023-04-27T08:25:31.278Z,15.99
2023-04-27T08:26:29.856Z,16.06
2023-04-27T08:27:31.263Z,15.86
2023-04-27T08:28:31.245Z,15.88
2023-04-27T08:29:31.490Z,15.85
2023-04-27T08:30:31.217Z,15.64
2023-04-27T08:31:31.266Z,15.75
2023-04-27T08:32:31.193Z,15.86
2023-04-27T08:33:31.208Z,15.97
2023-04-27T08:34:30.103Z,15.82
2023-04-27T08:35:31.133Z,15.93
2023-04-27T08:36:31.143Z,15.78
2023-04-27T08:37:31.126Z,15.67
2023-04-27T08:38:31.103Z,15.79
2023-04-27T08:39:31.093Z,15.96
2023-04-27T08:40:31.087Z,16.20
2023-04-27T08:41:31.064Z,16.30
2023-04-27T08:42:31.040Z,16.23
2023-04-27T08:43:31.056Z,16.41
2023-04-27T08:44:31.053Z,16.62
2023-04-27T08:45:31.015Z,16.85
2023-04-27T08:46:31.020Z,16.99
2023-04-27T08:47:41.628Z,17.14
2023-04-27T08:48:32.079Z,17.08
2023-04-27T08:49:31.001Z,17.17
2023-04-27T08:50:31.013Z,17.07
2023-04-27T08:51:31.441Z,17.41
2023-04-27T08:52:30.988Z,17.53
2023-04-27T08:53:30.951Z,17.28
2023-04-27T08:54:30.926Z,17.43
2023-04-27T08:55:30.951Z,17.87
2023-04-27T08:56:30.940Z,18.33
2023-04-27T08:57:30.846Z,18.44
2023-04-27T08:58:30.821Z,18.62
2023-04-27T08:59:30.824Z,18.72
2023-04-27T09:00:30.814Z,18.62
2023-04-27T09:01:29.953Z,18.79
2023-04-27T09:02:30.823Z,18.65
2023-04-27T09:03:30.909Z,18.72
2023-04-27T09:04:30.879Z,18.55
2023-04-27T09:05:30.748Z,18.80
2023-04-27T09:06:30.747Z,19.31
2023-04-27T09:07:30.701Z,19.48
2023-04-27T09:08:30.702Z,19.60
2023-04-27T09:09:30.718Z,19.87
2023-04-27T09:10:30.672Z,20.23
2023-04-27T09:11:30.661Z,20.31
2023-04-27T09:12:30.646Z,19.94
2023-04-27T09:13:30.626Z,19.79
2023-04-27T09:14:29.168Z,20.13
2023-04-27T09:15:30.605Z,20.50
2023-04-27T09:16:30.661Z,20.62
2023-04-27T09:17:30.782Z,20.64
2023-04-27T09:18:30.557Z,20.58
2023-04-27T09:19:29.486Z,20.79
2023-04-27T09:20:30.552Z,21.01
2023-04-27T09:21:30.507Z,21.34
2023-04-27T09:22:29.523Z,21.26
2023-04-27T09:23:29.538Z,21.35
2023-04-27T09:24:30.478Z,20.66
2023-04-27T09:25:30.529Z,21.26
2023-04-27T09:26:30.452Z,21.50
2023-04-27T09:27:30.439Z,21.41
2023-04-27T09:28:30.427Z,21.09
2023-04-27T09:29:30.417Z,21.26
2023-04-27T09:30:28.950Z,22.02
2023-04-27T09:31:29.713Z,22.31
2023-04-27T09:32:30.383Z,22.72
2023-04-27T09:33:30.361Z,23.04
2023-04-27T09:34:30.351Z,22.60
2023-04-27T09:35:30.325Z,22.94
2023-04-27T09:36:30.305Z,23.19
2023-04-27T09:37:30.298Z,23.24
2023-04-27T09:38:29.587Z,22.80
2023-04-27T09:39:30.301Z,22.82
2023-04-27T09:40:29.299Z,22.37
2023-04-27T09:41:30.246Z,22.60
2023-04-27T09:42:30.233Z,22.97
2023-04-27T09:43:30.215Z,23.20
2023-04-27T09:44:30.211Z,23.07
2023-04-27T09:45:30.262Z,22.65
2023-04-27T09:46:28.791Z,21.94
2023-04-27T09:47:30.198Z,21.19
2023-04-27T09:48:30.166Z,20.87
2023-04-27T09:49:30.148Z,19.50
2023-04-27T09:50:30.123Z,19.23
2023-04-27T09:51:30.105Z,20.31
2023-04-27T09:52:30.098Z,21.08
2023-04-27T09:53:28.749Z,21.78
2023-04-27T09:54:28.725Z,22.20
2023-04-27T09:55:30.061Z,22.23
2023-04-27T09:56:29.743Z,20.86
2023-04-27T09:57:30.036Z,19.73
2023-04-27T09:58:30.025Z,19.66
2023-04-27T09:59:30.019Z,20.18
2023-04-27T10:00:30.000Z,20.74
2023-04-27T10:01:30.006Z,21.54
2023-04-27T10:02:29.564Z,21.35
2023-04-27T10:03:30.056Z,19.80
2023-04-27T10:04:30.082Z,19.60
2023-04-27T10:05:29.996Z,20.41
2023-04-27T10:06:29.920Z,20.56
2023-04-27T10:07:29.903Z,20.87
2023-04-27T10:08:29.893Z,20.46
2023-04-27T10:09:29.890Z,21.34
2023-04-27T10:10:28.464Z,20.74
2023-04-27T10:11:29.840Z,20.76
2023-04-27T10:12:29.830Z,20.50
2023-04-27T10:13:29.828Z,20.93
2023-04-27T10:14:29.823Z,20.91
2023-04-27T10:15:29.845Z,21.04
2023-04-27T10:16:29.931Z,20.84
2023-04-27T10:17:28.506Z,20.74
2023-04-27T10:18:29.755Z,21.09
2023-04-27T10:19:29.728Z,20.80
2023-04-27T10:20:29.726Z,21.66
2023-04-27T10:21:29.709Z,21.94
2023-04-27T10:22:29.709Z,21.48
2023-04-27T10:23:29.695Z,21.21
2023-04-27T10:24:29.686Z,20.79
2023-04-27T10:25:28.492Z,21.09
2023-04-27T10:26:28.227Z,21.01
2023-04-27T10:27:29.631Z,21.66
2023-04-27T10:28:29.696Z,22.56
2023-04-27T10:29:29.600Z,23.31
2023-04-27T10:30:29.691Z,23.08
2023-04-27T10:31:29.692Z,22.67
2023-04-27T10:32:29.594Z,22.82
2023-04-27T10:33:28.485Z,23.12
2023-04-27T10:34:28.238Z,23.38
2023-04-27T10:35:29.547Z,23.77
2023-04-27T10:36:29.512Z,23.98
2023-04-27T10:37:29.551Z,24.12
2023-04-27T10:38:29.521Z,23.83
2023-04-27T10:39:43.735Z,21.99
2023-04-27T10:40:30.581Z,20.81
2023-04-27T10:41:28.493Z,21.56
2023-04-27T10:42:28.774Z,22.25
2023-04-27T10:43:28.501Z,22.92
2023-04-27T10:44:29.419Z,23.57
2023-04-27T10:45:31.857Z,23.20
2023-04-27T10:46:29.414Z,21.69
2023-04-27T10:47:29.417Z,21.94
2023-04-27T10:48:29.362Z,22.64
2023-04-27T10:49:27.973Z,23.82
2023-04-27T10:50:28.068Z,24.60
2023-04-27T10:51:29.324Z,25.72
2023-04-27T10:52:29.312Z,25.79
2023-04-27T10:53:29.301Z,25.32
2023-04-27T10:54:29.300Z,25.80
2023-04-27T10:55:29.293Z,25.93
2023-04-27T10:56:29.259Z,25.67
2023-04-27T10:57:29.245Z,24.64
2023-04-27T10:58:37.749Z,23.83
2023-04-27T10:59:30.238Z,22.69
2023-04-27T11:00:29.215Z,21.61
2023-04-27T11:01:29.243Z,21.99
2023-04-27T11:02:29.326Z,22.20
2023-04-27T11:03:29.255Z,21.67
2023-04-27T11:04:29.180Z,22.02
2023-04-27T11:05:29.177Z,21.88
2023-04-27T11:06:29.128Z,20.69
2023-04-27T11:07:29.199Z,19.73
2023-04-27T11:08:29.105Z,19.65
2023-04-27T11:09:29.103Z,19.98
2023-04-27T11:10:28.590Z,20.61
2023-04-27T11:11:29.122Z,20.72
2023-04-27T11:12:29.134Z,21.17
2023-04-27T11:13:29.101Z,21.78
2023-04-27T11:14:27.571Z,22.72
2023-04-27T11:15:29.033Z,23.55
2023-04-27T11:16:30.794Z,23.57
2023-04-27T11:17:29.145Z,23.29
2023-04-27T11:18:28.973Z,22.04
2023-04-27T11:19:28.984Z,21.14
2023-04-27T11:20:28.953Z,21.41
2023-04-27T11:21:28.929Z,22.19
2023-04-27T11:22:27.823Z,22.89
2023-04-27T11:23:28.997Z,22.64
2023-04-27T11:24:28.896Z,22.20
2023-04-27T11:25:28.904Z,22.90
2023-04-27T11:26:28.871Z,23.19
2023-04-27T11:27:28.865Z,23.32
2023-04-27T11:28:28.829Z,23.27
2023-04-27T11:29:27.376Z,22.86
2023-04-27T11:30:27.915Z,23.01
2023-04-27T11:31:28.869Z,22.97
2023-04-27T11:32:27.847Z,22.89
2023-04-27T11:33:27.869Z,22.53
2023-04-27T11:34:27.818Z,21.82
2023-04-27T11:35:28.791Z,21.60
2023-04-27T11:36:28.750Z,20.68
2023-04-27T11:37:27.340Z,20.86
2023-04-27T11:38:28.719Z,20.96
2023-04-27T11:39:28.988Z,20.38
2023-04-27T11:40:27.438Z,19.83
2023-04-27T11:41:28.685Z,19.75
2023-04-27T11:42:28.803Z,19.83
2023-04-27T11:43:28.663Z,19.72
2023-04-27T11:44:28.640Z,19.43
2023-04-27T11:45:27.345Z,20.30
2023-04-27T11:46:27.679Z,19.90
2023-04-27T11:47:28.173Z,19.65
2023-04-27T11:48:28.572Z,19.91
2023-04-27T11:49:28.572Z,20.08
2023-04-27T11:50:28.562Z,20.66
2023-04-27T11:51:28.551Z,21.41
2023-04-27T11:52:28.519Z,21.92
2023-04-27T11:53:27.842Z,22.50
2023-04-27T11:54:27.798Z,23.29
2023-04-27T11:55:28.504Z,23.17
2023-04-27T11:56:28.469Z,21.71
2023-04-27T11:57:28.470Z,20.72
2023-04-27T11:58:28.438Z,20.98
2023-04-27T11:59:28.425Z,21.16
2023-04-27T12:00:28.428Z,20.81
2023-04-27T12:01:37.002Z,20.50
2023-04-27T12:02:28.365Z,20.35
2023-04-27T12:03:28.569Z,20.30
2023-04-27T12:04:28.531Z,20.91
2023-04-27T12:05:28.571Z,20.31
2023-04-27T12:06:33.119Z,19.80
2023-04-27T12:07:29.340Z,19.51
2023-04-27T12:08:28.299Z,19.68
2023-04-27T12:09:26.846Z,19.55
2023-04-27T12:10:28.302Z,19.68
2023-04-27T12:11:28.273Z,20.47
2023-04-27T12:12:28.263Z,20.53
2023-04-27T12:13:28.254Z,20.42
2023-04-27T12:14:28.226Z,20.05
2023-04-27T12:15:28.221Z,20.13
2023-04-27T12:16:28.202Z,20.49
2023-04-27T12:17:26.780Z,21.16
2023-04-27T12:18:28.192Z,21.81
2023-04-27T12:19:28.166Z,22.75
2023-04-27T12:20:28.179Z,23.42
2023-04-27T12:21:28.144Z,23.62
2023-04-27T12:22:28.115Z,23.71
2023-04-27T12:23:28.111Z,23.05
2023-04-27T12:24:28.104Z,22.19
2023-04-27T12:25:28.090Z,21.71
2023-04-27T12:26:28.078Z,21.27
2023-04-27T12:27:28.066Z,21.39
2023-04-27T12:28:28.030Z,21.72
2023-04-27T12:29:28.037Z,21.48
2023-04-27T12:30:28.017Z,21.39
2023-04-27T12:31:28.103Z,21.17
2023-04-27T12:32:28.020Z,21.35
2023-04-27T12:33:26.535Z,21.19
2023-04-27T12:34:27.966Z,21.36
2023-04-27T12:35:27.944Z,21.66
2023-04-27T12:36:27.923Z,22.09
2023-04-27T12:37:27.960Z,21.24
2023-04-27T12:38:27.893Z,21.69
2023-04-27T12:39:27.908Z,22.57
2023-04-27T12:40:27.883Z,21.82
2023-04-27T12:41:26.405Z,22.12
2023-04-27T12:42:26.409Z,22.93
2023-04-27T12:43:27.901Z,22.46
2023-04-27T12:44:27.821Z,21.91
2023-04-27T12:45:27.839Z,21.05
2023-04-27T12:46:26.635Z,20.65
2023-04-27T12:47:46.536Z,20.99
2023-04-27T12:48:27.405Z,21.34
2023-04-27T12:49:26.305Z,21.63
2023-04-27T12:50:26.597Z,22.13
2023-04-27T12:51:27.732Z,22.12
2023-04-27T12:52:26.591Z,21.88
2023-04-27T12:53:27.694Z,21.20
2023-04-27T12:54:27.694Z,21.19
2023-04-27T12:56:26.704Z,21.60
2023-04-27T12:57:26.709Z,22.13
2023-04-27T12:58:26.721Z,22.71
2023-04-27T12:59:27.639Z,22.23
2023-04-27T13:00:26.615Z,22.97
2023-04-27T13:01:27.637Z,23.01
2023-04-27T13:02:26.709Z,23.26
2023-04-27T13:03:26.735Z,23.61
2023-04-27T13:04:26.691Z,23.68
2023-04-27T13:05:26.611Z,23.58
2023-04-27T13:06:27.532Z,23.65